sensor_id;sensor_type;location;lat;lon;timestamp;P1;durP1;ratioP1;P2;durP2;ratioP2
12947;SDS011;6539;49.476;8.484;2023-05-23T00:02:02;53.53;;;41.07;;
12947;SDS011;6539;49.476;8.484;2023-05-23T00:04:34;52.60;;;39.47;;
12947;SDS011;6539;49.476;8.484;2023-05-23T00:07:03;57.73;;;40.67;;
12947;SDS011;6539;49.476;8.484;2023-05-23T00:09:29;53.40;;;41.53;;
12947;SDS011;6539;49.476;8.484;2023-05-23T00:11:55;54.87;;;40.33;;
12947;SDS011;6539;49.476;8.484;2023-05-23T00:14:23;56.53;;;40.77;;
12947;SDS011;6539;49.476;8.484;2023-05-23T00:16:49;56.93;;;39.63;;
12947;SDS011;6539;49.476;8.484;2023-05-23T00:19:15;49.80;;;38.77;;
12947;SDS011;6539;49.476;8.484;2023-05-23T00:21:45;50.70;;;37.70;;
12947;SDS011;6539;49.476;8.484;2023-05-23T00:24:15;48.43;;;38.77;;
12947;SDS011;6539;49.476;8.484;2023-05-23T00:26:43;48.27;;;37.90;;
12947;SDS011;6539;49.476;8.484;2023-05-23T00:29:13;54.60;;;39.37;;
12947;SDS011;6539;49.476;8.484;2023-05-23T00:31:43;52.40;;;38.30;;
12947;SDS011;6539;49.476;8.484;2023-05-23T00:34:13;46.13;;;36.33;;
12947;SDS011;6539;49.476;8.484;2023-05-23T00:36:44;49.20;;;37.27;;
12947;SDS011;6539;49.476;8.484;2023-05-23T00:39:14;51.53;;;37.60;;
12947;SDS011;6539;49.476;8.484;2023-05-23T00:41:52;48.10;;;36.57;;
12947;SDS011;6539;49.476;8.484;2023-05-23T00:44:21;48.10;;;36.10;;
12947;SDS011;6539;49.476;8.484;2023-05-23T00:46:49;44.97;;;35.17;;
12947;SDS011;6539;49.476;8.484;2023-05-23T00:49:19;45.93;;;34.50;;
12947;SDS011;6539;49.476;8.484;2023-05-23T00:51:45;47.90;;;35.10;;
12947;SDS011;6539;49.476;8.484;2023-05-23T00:54:13;46.83;;;35.00;;
12947;SDS011;6539;49.476;8.484;2023-05-23T00:56:45;46.63;;;33.97;;
12947;SDS011;6539;49.476;8.484;2023-05-23T00:59:15;41.87;;;33.13;;
12947;SDS011;6539;49.476;8.484;2023-05-23T01:01:45;41.67;;;32.97;;
12947;SDS011;6539;49.476;8.484;2023-05-23T01:04:14;39.77;;;30.87;;
12947;SDS011;6539;49.476;8.484;2023-05-23T01:06:43;41.23;;;31.67;;
12947;SDS011;6539;49.476;8.484;2023-05-23T01:09:11;36.17;;;30.07;;
12947;SDS011;6539;49.476;8.484;2023-05-23T01:11:42;40.33;;;32.67;;
12947;SDS011;6539;49.476;8.484;2023-05-23T01:15:12;38.27;;;32.03;;
12947;SDS011;6539;49.476;8.484;2023-05-23T01:20:42;38.47;;;30.27;;
12947;SDS011;6539;49.476;8.484;2023-05-23T01:29:33;35.80;;;30.40;;
12947;SDS011;6539;49.476;8.484;2023-05-23T01:32:11;36.60;;;29.67;;
12947;SDS011;6539;49.476;8.484;2023-05-23T01:34:40;36.50;;;30.20;;
12947;SDS011;6539;49.476;8.484;2023-05-23T01:37:09;35.40;;;29.20;;
12947;SDS011;6539;49.476;8.484;2023-05-23T01:39:42;39.00;;;30.77;;
12947;SDS011;6539;49.476;8.484;2023-05-23T01:42:08;35.37;;;29.27;;
12947;SDS011;6539;49.476;8.484;2023-05-23T01:44:34;33.13;;;28.13;;
12947;SDS011;6539;49.476;8.484;2023-05-23T01:47:07;34.47;;;29.63;;
12947;SDS011;6539;49.476;8.484;2023-05-23T01:49:37;33.57;;;28.63;;
12947;SDS011;6539;49.476;8.484;2023-05-23T01:52:06;33.27;;;28.67;;
12947;SDS011;6539;49.476;8.484;2023-05-23T01:54:37;36.27;;;28.87;;
12947;SDS011;6539;49.476;8.484;2023-05-23T01:57:07;33.47;;;28.63;;
12947;SDS011;6539;49.476;8.484;2023-05-23T01:59:38;34.27;;;28.47;;
12947;SDS011;6539;49.476;8.484;2023-05-23T02:02:06;31.77;;;26.30;;
12947;SDS011;6539;49.476;8.484;2023-05-23T02:04:32;33.57;;;28.27;;
12947;SDS011;6539;49.476;8.484;2023-05-23T02:07:03;33.53;;;28.57;;
12947;SDS011;6539;49.476;8.484;2023-05-23T02:09:31;31.97;;;28.57;;
12947;SDS011;6539;49.476;8.484;2023-05-23T02:11:57;33.97;;;28.53;;
12947;SDS011;6539;49.476;8.484;2023-05-23T02:14:23;32.53;;;28.17;;
12947;SDS011;6539;49.476;8.484;2023-05-23T02:16:52;37.33;;;27.80;;
12947;SDS011;6539;49.476;8.484;2023-05-23T02:19:18;33.03;;;27.77;;
12947;SDS011;6539;49.476;8.484;2023-05-23T02:21:44;32.83;;;29.23;;
12947;SDS011;6539;49.476;8.484;2023-05-23T02:24:15;32.13;;;28.60;;
12947;SDS011;6539;49.476;8.484;2023-05-23T02:26:40;34.23;;;30.63;;
12947;SDS011;6539;49.476;8.484;2023-05-23T02:29:06;33.37;;;29.77;;
12947;SDS011;6539;49.476;8.484;2023-05-23T02:31:32;34.80;;;31.00;;
12947;SDS011;6539;49.476;8.484;2023-05-23T02:33:58;37.23;;;32.77;;
12947;SDS011;6539;49.476;8.484;2023-05-23T02:36:24;34.73;;;30.73;;
12947;SDS011;6539;49.476;8.484;2023-05-23T02:38:52;35.70;;;31.83;;
12947;SDS011;6539;49.476;8.484;2023-05-23T02:41:18;35.80;;;30.63;;
12947;SDS011;6539;49.476;8.484;2023-05-23T02:43:45;38.37;;;32.77;;
12947;SDS011;6539;49.476;8.484;2023-05-23T02:46:13;37.17;;;32.47;;
12947;SDS011;6539;49.476;8.484;2023-05-23T02:48:42;35.80;;;30.70;;
12947;SDS011;6539;49.476;8.484;2023-05-23T02:51:09;36.43;;;32.17;;
12947;SDS011;6539;49.476;8.484;2023-05-23T02:53:40;37.77;;;33.27;;
12947;SDS011;6539;49.476;8.484;2023-05-23T02:56:06;37.97;;;33.17;;
12947;SDS011;6539;49.476;8.484;2023-05-23T02:58:39;36.33;;;32.50;;
12947;SDS011;6539;49.476;8.484;2023-05-23T03:01:06;36.37;;;31.53;;
12947;SDS011;6539;49.476;8.484;2023-05-23T03:03:32;35.43;;;31.50;;
12947;SDS011;6539;49.476;8.484;2023-05-23T03:06:03;37.37;;;32.00;;
12947;SDS011;6539;49.476;8.484;2023-05-23T03:08:32;36.73;;;30.60;;
12947;SDS011;6539;49.476;8.484;2023-05-23T03:10:58;34.23;;;30.13;;
12947;SDS011;6539;49.476;8.484;2023-05-23T03:13:24;35.50;;;28.93;;
12947;SDS011;6539;49.476;8.484;2023-05-23T03:15:50;35.67;;;29.50;;
12947;SDS011;6539;49.476;8.484;2023-05-23T03:18:16;31.73;;;28.33;;
12947;SDS011;6539;49.476;8.484;2023-05-23T03:20:41;33.87;;;30.13;;
12947;SDS011;6539;49.476;8.484;2023-05-23T03:23:07;33.63;;;29.90;;
12947;SDS011;6539;49.476;8.484;2023-05-23T03:25:33;32.07;;;28.67;;
12947;SDS011;6539;49.476;8.484;2023-05-23T03:28:01;31.73;;;27.77;;
12947;SDS011;6539;49.476;8.484;2023-05-23T03:30:31;31.70;;;27.70;;
12947;SDS011;6539;49.476;8.484;2023-05-23T03:32:59;32.40;;;28.43;;
12947;SDS011;6539;49.476;8.484;2023-05-23T03:35:26;31.80;;;28.40;;
12947;SDS011;6539;49.476;8.484;2023-05-23T03:37:51;30.80;;;26.80;;
12947;SDS011;6539;49.476;8.484;2023-05-23T03:40:20;32.77;;;27.33;;
12947;SDS011;6539;49.476;8.484;2023-05-23T03:42:47;31.10;;;27.60;;
12947;SDS011;6539;49.476;8.484;2023-05-23T03:45:25;30.17;;;26.97;;
12947;SDS011;6539;49.476;8.484;2023-05-23T03:47:51;28.77;;;25.73;;
12947;SDS011;6539;49.476;8.484;2023-05-23T03:50:18;29.67;;;26.50;;
12947;SDS011;6539;49.476;8.484;2023-05-23T03:52:47;33.10;;;25.73;;
12947;SDS011;6539;49.476;8.484;2023-05-23T03:55:12;31.03;;;27.10;;
12947;SDS011;6539;49.476;8.484;2023-05-23T03:57:40;28.90;;;26.00;;
12947;SDS011;6539;49.476;8.484;2023-05-23T04:00:06;28.80;;;25.73;;
12947;SDS011;6539;49.476;8.484;2023-05-23T04:02:36;31.27;;;27.57;;
12947;SDS011;6539;49.476;8.484;2023-05-23T04:05:04;29.73;;;26.63;;
12947;SDS011;6539;49.476;8.484;2023-05-23T04:07:31;29.23;;;26.13;;
12947;SDS011;6539;49.476;8.484;2023-05-23T04:10:01;29.00;;;25.63;;
12947;SDS011;6539;49.476;8.484;2023-05-23T04:12:28;28.60;;;25.10;;
12947;SDS011;6539;49.476;8.484;2023-05-23T04:15:00;28.23;;;24.50;;
12947;SDS011;6539;49.476;8.484;2023-05-23T04:17:26;28.07;;;25.27;;
12947;SDS011;6539;49.476;8.484;2023-05-23T04:19:54;28.50;;;24.70;;
12947;SDS011;6539;49.476;8.484;2023-05-23T04:22:24;25.80;;;23.07;;
12947;SDS011;6539;49.476;8.484;2023-05-23T04:24:49;27.40;;;24.40;;
12947;SDS011;6539;49.476;8.484;2023-05-23T04:27:15;28.53;;;23.23;;
12947;SDS011;6539;49.476;8.484;2023-05-23T04:29:41;27.13;;;24.00;;
12947;SDS011;6539;49.476;8.484;2023-05-23T04:32:10;24.83;;;22.17;;
12947;SDS011;6539;49.476;8.484;2023-05-23T04:34:36;25.87;;;22.47;;
12947;SDS011;6539;49.476;8.484;2023-05-23T04:37:05;23.97;;;21.37;;
12947;SDS011;6539;49.476;8.484;2023-05-23T04:39:31;23.40;;;21.00;;
12947;SDS011;6539;49.476;8.484;2023-05-23T04:41:56;25.67;;;21.80;;
12947;SDS011;6539;49.476;8.484;2023-05-23T04:44:25;25.13;;;22.53;;
12947;SDS011;6539;49.476;8.484;2023-05-23T04:46:56;25.33;;;22.37;;
12947;SDS011;6539;49.476;8.484;2023-05-23T04:49:22;24.53;;;21.77;;
12947;SDS011;6539;49.476;8.484;2023-05-23T04:51:50;25.57;;;22.37;;
12947;SDS011;6539;49.476;8.484;2023-05-23T04:54:19;30.33;;;24.27;;
12947;SDS011;6539;49.476;8.484;2023-05-23T04:56:45;22.90;;;20.40;;
12947;SDS011;6539;49.476;8.484;2023-05-23T04:59:16;21.10;;;18.07;;
12947;SDS011;6539;49.476;8.484;2023-05-23T05:01:44;25.83;;;20.23;;
12947;SDS011;6539;49.476;8.484;2023-05-23T05:04:14;20.60;;;17.93;;
12947;SDS011;6539;49.476;8.484;2023-05-23T05:06:40;16.47;;;13.10;;
12947;SDS011;6539;49.476;8.484;2023-05-23T05:09:08;16.60;;;14.43;;
12947;SDS011;6539;49.476;8.484;2023-05-23T05:11:36;16.20;;;14.40;;
12947;SDS011;6539;49.476;8.484;2023-05-23T05:14:05;16.80;;;14.93;;
12947;SDS011;6539;49.476;8.484;2023-05-23T05:16:30;16.53;;;14.83;;
12947;SDS011;6539;49.476;8.484;2023-05-23T05:18:58;14.50;;;12.87;;
12947;SDS011;6539;49.476;8.484;2023-05-23T05:21:24;14.60;;;13.10;;
12947;SDS011;6539;49.476;8.484;2023-05-23T05:23:50;17.53;;;14.30;;
12947;SDS011;6539;49.476;8.484;2023-05-23T05:26:18;13.87;;;12.07;;
12947;SDS011;6539;49.476;8.484;2023-05-23T05:28:47;13.20;;;11.80;;
12947;SDS011;6539;49.476;8.484;2023-05-23T05:31:14;15.07;;;13.50;;
12947;SDS011;6539;49.476;8.484;2023-05-23T05:33:42;12.77;;;11.27;;
12947;SDS011;6539;49.476;8.484;2023-05-23T05:36:09;13.90;;;11.43;;
12947;SDS011;6539;49.476;8.484;2023-05-23T05:38:35;13.30;;;11.87;;
12947;SDS011;6539;49.476;8.484;2023-05-23T05:41:01;16.07;;;14.47;;
12947;SDS011;6539;49.476;8.484;2023-05-23T05:43:27;15.10;;;12.60;;
12947;SDS011;6539;49.476;8.484;2023-05-23T05:45:53;15.33;;;13.77;;
12947;SDS011;6539;49.476;8.484;2023-05-23T05:48:21;17.37;;;14.97;;
12947;SDS011;6539;49.476;8.484;2023-05-23T05:50:49;16.57;;;14.87;;
12947;SDS011;6539;49.476;8.484;2023-05-23T05:53:15;16.13;;;14.43;;
12947;SDS011;6539;49.476;8.484;2023-05-23T05:55:45;19.30;;;15.07;;
12947;SDS011;6539;49.476;8.484;2023-05-23T05:58:13;15.50;;;14.00;;
12947;SDS011;6539;49.476;8.484;2023-05-23T06:00:41;15.50;;;13.90;;
12947;SDS011;6539;49.476;8.484;2023-05-23T06:03:09;18.23;;;14.23;;
12947;SDS011;6539;49.476;8.484;2023-05-23T06:05:36;16.07;;;14.37;;
12947;SDS011;6539;49.476;8.484;2023-05-23T06:08:05;15.63;;;13.87;;
12947;SDS011;6539;49.476;8.484;2023-05-23T06:10:35;15.43;;;13.93;;
12947;SDS011;6539;49.476;8.484;2023-05-23T06:13:06;15.67;;;13.87;;
12947;SDS011;6539;49.476;8.484;2023-05-23T06:15:34;17.50;;;14.03;;
12947;SDS011;6539;49.476;8.484;2023-05-23T06:18:00;15.87;;;14.23;;
12947;SDS011;6539;49.476;8.484;2023-05-23T06:20:28;13.97;;;12.53;;
12947;SDS011;6539;49.476;8.484;2023-05-23T06:22:54;14.57;;;13.07;;
12947;SDS011;6539;49.476;8.484;2023-05-23T06:25:20;13.47;;;12.10;;
12947;SDS011;6539;49.476;8.484;2023-05-23T06:27:45;14.77;;;12.37;;
12947;SDS011;6539;49.476;8.484;2023-05-23T06:30:11;15.10;;;12.97;;
12947;SDS011;6539;49.476;8.484;2023-05-23T06:32:42;14.57;;;12.10;;
12947;SDS011;6539;49.476;8.484;2023-05-23T06:35:10;13.23;;;11.93;;
12947;SDS011;6539;49.476;8.484;2023-05-23T06:37:36;12.43;;;11.20;;
12947;SDS011;6539;49.476;8.484;2023-05-23T06:40:09;12.03;;;10.73;;
12947;SDS011;6539;49.476;8.484;2023-05-23T06:42:37;15.27;;;11.97;;
12947;SDS011;6539;49.476;8.484;2023-05-23T06:45:03;12.10;;;10.90;;
12947;SDS011;6539;49.476;8.484;2023-05-23T06:47:29;11.33;;;10.17;;
12947;SDS011;6539;49.476;8.484;2023-05-23T06:49:55;11.23;;;10.17;;
12947;SDS011;6539;49.476;8.484;2023-05-23T06:52:21;10.90;;;9.90;;
12947;SDS011;6539;49.476;8.484;2023-05-23T06:54:46;13.03;;;10.10;;
12947;SDS011;6539;49.476;8.484;2023-05-23T06:57:20;11.33;;;10.13;;
12947;SDS011;6539;49.476;8.484;2023-05-23T06:59:45;12.80;;;9.37;;
12947;SDS011;6539;49.476;8.484;2023-05-23T07:02:11;11.70;;;10.53;;
12947;SDS011;6539;49.476;8.484;2023-05-23T07:04:37;12.23;;;10.40;;
12947;SDS011;6539;49.476;8.484;2023-05-23T07:07:02;12.00;;;10.67;;
12947;SDS011;6539;49.476;8.484;2023-05-23T07:09:36;11.23;;;10.13;;
12947;SDS011;6539;49.476;8.484;2023-05-23T07:12:03;11.17;;;10.07;;
12947;SDS011;6539;49.476;8.484;2023-05-23T07:14:31;13.83;;;11.07;;
12947;SDS011;6539;49.476;8.484;2023-05-23T07:17:11;12.60;;;11.33;;
12947;SDS011;6539;49.476;8.484;2023-05-23T07:19:37;18.90;;;13.50;;
12947;SDS011;6539;49.476;8.484;2023-05-23T07:22:03;14.67;;;12.67;;
12947;SDS011;6539;49.476;8.484;2023-05-23T07:24:29;13.53;;;12.13;;
12947;SDS011;6539;49.476;8.484;2023-05-23T07:26:54;14.80;;;12.90;;
12947;SDS011;6539;49.476;8.484;2023-05-23T07:29:23;15.90;;;12.50;;
12947;SDS011;6539;49.476;8.484;2023-05-23T07:31:48;17.57;;;14.70;;
12947;SDS011;6539;49.476;8.484;2023-05-23T07:34:14;13.00;;;11.70;;
12947;SDS011;6539;49.476;8.484;2023-05-23T07:36:45;13.90;;;12.50;;
12947;SDS011;6539;49.476;8.484;2023-05-23T07:39:11;12.87;;;11.50;;
12947;SDS011;6539;49.476;8.484;2023-05-23T07:41:37;12.77;;;11.50;;
12947;SDS011;6539;49.476;8.484;2023-05-23T07:44:05;13.20;;;11.67;;
12947;SDS011;6539;49.476;8.484;2023-05-23T07:46:31;12.63;;;11.07;;
12947;SDS011;6539;49.476;8.484;2023-05-23T07:48:59;11.60;;;10.40;;
12947;SDS011;6539;49.476;8.484;2023-05-23T07:51:25;12.37;;;11.03;;
12947;SDS011;6539;49.476;8.484;2023-05-23T07:53:53;13.67;;;10.80;;
12947;SDS011;6539;49.476;8.484;2023-05-23T07:56:21;13.67;;;11.13;;
12947;SDS011;6539;49.476;8.484;2023-05-23T07:58:50;11.03;;;9.93;;
12947;SDS011;6539;49.476;8.484;2023-05-23T08:01:16;12.20;;;10.90;;
12947;SDS011;6539;49.476;8.484;2023-05-23T08:03:46;8.70;;;7.90;;
12947;SDS011;6539;49.476;8.484;2023-05-23T08:06:14;7.77;;;6.97;;
12947;SDS011;6539;49.476;8.484;2023-05-23T08:08:41;8.77;;;6.60;;
12947;SDS011;6539;49.476;8.484;2023-05-23T08:11:08;7.23;;;6.40;;
12947;SDS011;6539;49.476;8.484;2023-05-23T08:13:36;7.27;;;6.53;;
12947;SDS011;6539;49.476;8.484;2023-05-23T08:16:04;7.20;;;6.57;;
12947;SDS011;6539;49.476;8.484;2023-05-23T08:18:31;6.67;;;6.07;;
12947;SDS011;6539;49.476;8.484;2023-05-23T08:21:00;6.97;;;6.27;;
12947;SDS011;6539;49.476;8.484;2023-05-23T08:23:26;5.97;;;5.27;;
12947;SDS011;6539;49.476;8.484;2023-05-23T08:25:53;8.40;;;6.23;;
12947;SDS011;6539;49.476;8.484;2023-05-23T08:28:22;6.00;;;5.40;;
12947;SDS011;6539;49.476;8.484;2023-05-23T08:30:48;5.47;;;4.63;;
12947;SDS011;6539;49.476;8.484;2023-05-23T08:33:14;6.17;;;4.93;;
12947;SDS011;6539;49.476;8.484;2023-05-23T08:35:42;5.90;;;4.60;;
12947;SDS011;6539;49.476;8.484;2023-05-23T08:38:10;5.27;;;4.77;;
12947;SDS011;6539;49.476;8.484;2023-05-23T08:40:36;5.10;;;4.60;;
12947;SDS011;6539;49.476;8.484;2023-05-23T08:43:07;4.83;;;4.30;;
12947;SDS011;6539;49.476;8.484;2023-05-23T08:45:34;4.40;;;4.10;;
12947;SDS011;6539;49.476;8.484;2023-05-23T08:48:03;5.50;;;4.63;;
12947;SDS011;6539;49.476;8.484;2023-05-23T08:50:35;5.07;;;4.67;;
12947;SDS011;6539;49.476;8.484;2023-05-23T08:53:04;5.13;;;4.63;;
12947;SDS011;6539;49.476;8.484;2023-05-23T08:55:33;4.90;;;4.50;;
12947;SDS011;6539;49.476;8.484;2023-05-23T08:58:02;5.60;;;5.10;;
12947;SDS011;6539;49.476;8.484;2023-05-23T09:00:31;5.70;;;5.20;;
12947;SDS011;6539;49.476;8.484;2023-05-23T09:03:01;5.53;;;5.03;;
12947;SDS011;6539;49.476;8.484;2023-05-23T09:05:29;5.00;;;4.50;;
12947;SDS011;6539;49.476;8.484;2023-05-23T09:07:55;7.43;;;4.50;;
12947;SDS011;6539;49.476;8.484;2023-05-23T09:10:26;5.07;;;4.57;;
12947;SDS011;6539;49.476;8.484;2023-05-23T09:12:53;5.07;;;4.67;;
12947;SDS011;6539;49.476;8.484;2023-05-23T09:15:22;5.20;;;4.70;;
12947;SDS011;6539;49.476;8.484;2023-05-23T09:17:48;5.10;;;3.97;;
12947;SDS011;6539;49.476;8.484;2023-05-23T09:20:16;4.80;;;4.40;;
12947;SDS011;6539;49.476;8.484;2023-05-23T09:22:53;4.47;;;4.07;;
12947;SDS011;6539;49.476;8.484;2023-05-23T09:25:20;4.00;;;3.60;;
12947;SDS011;6539;49.476;8.484;2023-05-23T09:27:48;4.27;;;3.97;;
12947;SDS011;6539;49.476;8.484;2023-05-23T09:30:18;5.73;;;5.00;;
12947;SDS011;6539;49.476;8.484;2023-05-23T09:32:56;5.93;;;4.40;;
12947;SDS011;6539;49.476;8.484;2023-05-23T09:35:27;7.07;;;5.10;;
12947;SDS011;6539;49.476;8.484;2023-05-23T09:37:52;5.17;;;3.83;;
12947;SDS011;6539;49.476;8.484;2023-05-23T09:40:20;3.57;;;3.13;;
12947;SDS011;6539;49.476;8.484;2023-05-23T09:42:49;6.53;;;3.90;;
12947;SDS011;6539;49.476;8.484;2023-05-23T09:45:15;3.87;;;3.57;;
12947;SDS011;6539;49.476;8.484;2023-05-23T09:47:50;4.23;;;3.83;;
12947;SDS011;6539;49.476;8.484;2023-05-23T09:50:17;4.40;;;4.03;;
12947;SDS011;6539;49.476;8.484;2023-05-23T09:52:43;4.63;;;4.10;;
12947;SDS011;6539;49.476;8.484;2023-05-23T09:55:12;4.50;;;3.47;;
12947;SDS011;6539;49.476;8.484;2023-05-23T09:57:41;3.87;;;3.57;;
12947;SDS011;6539;49.476;8.484;2023-05-23T10:00:09;3.67;;;3.17;;
12947;SDS011;6539;49.476;8.484;2023-05-23T10:05:43;4.17;;;3.80;;
12947;SDS011;6539;49.476;8.484;2023-05-23T10:13:27;3.90;;;3.50;;
12947;SDS011;6539;49.476;8.484;2023-05-23T10:15:55;3.57;;;3.27;;
12947;SDS011;6539;49.476;8.484;2023-05-23T10:18:38;3.60;;;3.30;;
12947;SDS011;6539;49.476;8.484;2023-05-23T10:21:17;5.87;;;3.50;;
12947;SDS011;6539;49.476;8.484;2023-05-23T10:23:49;4.60;;;4.10;;
12947;SDS011;6539;49.476;8.484;2023-05-23T10:26:18;5.27;;;4.43;;
12947;SDS011;6539;49.476;8.484;2023-05-23T10:28:46;6.60;;;5.43;;
12947;SDS011;6539;49.476;8.484;2023-05-23T10:31:15;5.63;;;5.13;;
12947;SDS011;6539;49.476;8.484;2023-05-23T10:33:43;8.17;;;6.00;;
12947;SDS011;6539;49.476;8.484;2023-05-23T10:36:43;11.73;;;8.93;;
12947;SDS011;6539;49.476;8.484;2023-05-23T10:39:41;13.23;;;8.47;;
12947;SDS011;6539;49.476;8.484;2023-05-23T10:42:27;9.57;;;6.70;;
12947;SDS011;6539;49.476;8.484;2023-05-23T10:45:38;6.37;;;5.30;;
12947;SDS011;6539;49.476;8.484;2023-05-23T10:48:31;6.63;;;5.87;;
12947;SDS011;6539;49.476;8.484;2023-05-23T10:51:00;7.37;;;6.50;;
12947;SDS011;6539;49.476;8.484;2023-05-23T10:53:44;8.70;;;5.30;;
12947;SDS011;6539;49.476;8.484;2023-05-23T10:56:18;6.80;;;5.60;;
12947;SDS011;6539;49.476;8.484;2023-05-23T10:58:51;4.97;;;4.57;;
12947;SDS011;6539;49.476;8.484;2023-05-23T11:01:21;6.80;;;6.10;;
12947;SDS011;6539;49.476;8.484;2023-05-23T11:03:51;5.83;;;3.97;;
12947;SDS011;6539;49.476;8.484;2023-05-23T11:06:36;5.87;;;5.10;;
12947;SDS011;6539;49.476;8.484;2023-05-23T11:09:14;6.93;;;5.97;;
12947;SDS011;6539;49.476;8.484;2023-05-23T11:17:00;5.30;;;4.80;;
12947;SDS011;6539;49.476;8.484;2023-05-23T11:22:33;5.43;;;4.23;;
12947;SDS011;6539;49.476;8.484;2023-05-23T11:25:00;5.17;;;4.67;;
12947;SDS011;6539;49.476;8.484;2023-05-23T11:27:37;4.97;;;4.57;;
12947;SDS011;6539;49.476;8.484;2023-05-23T11:30:06;4.97;;;4.47;;
12947;SDS011;6539;49.476;8.484;2023-05-23T11:32:38;5.90;;;4.60;;
12947;SDS011;6539;49.476;8.484;2023-05-23T11:35:05;5.10;;;4.40;;
12947;SDS011;6539;49.476;8.484;2023-05-23T11:37:34;5.87;;;5.27;;
12947;SDS011;6539;49.476;8.484;2023-05-23T11:42:56;6.43;;;4.33;;
12947;SDS011;6539;49.476;8.484;2023-05-23T11:45:28;5.00;;;4.00;;
12947;SDS011;6539;49.476;8.484;2023-05-23T11:48:03;4.73;;;4.33;;
12947;SDS011;6539;49.476;8.484;2023-05-23T11:50:33;5.10;;;4.60;;
12947;SDS011;6539;49.476;8.484;2023-05-23T11:53:21;7.27;;;5.57;;
12947;SDS011;6539;49.476;8.484;2023-05-23T11:55:49;7.50;;;6.20;;
12947;SDS011;6539;49.476;8.484;2023-05-23T11:58:24;6.87;;;6.17;;
12947;SDS011;6539;49.476;8.484;2023-05-23T12:03:25;8.23;;;7.07;;
12947;SDS011;6539;49.476;8.484;2023-05-23T12:05:50;7.73;;;7.03;;
12947;SDS011;6539;49.476;8.484;2023-05-23T12:08:16;9.97;;;7.17;;
12947;SDS011;6539;49.476;8.484;2023-05-23T12:10:57;9.60;;;7.60;;
12947;SDS011;6539;49.476;8.484;2023-05-23T12:13:25;8.10;;;7.30;;
12947;SDS011;6539;49.476;8.484;2023-05-23T12:15:58;9.30;;;7.67;;
12947;SDS011;6539;49.476;8.484;2023-05-23T12:18:31;9.27;;;7.83;;
12947;SDS011;6539;49.476;8.484;2023-05-23T12:21:03;12.23;;;9.53;;
12947;SDS011;6539;49.476;8.484;2023-05-23T12:23:34;9.60;;;8.20;;
12947;SDS011;6539;49.476;8.484;2023-05-23T12:26:03;9.57;;;8.43;;
12947;SDS011;6539;49.476;8.484;2023-05-23T12:28:40;7.40;;;6.63;;
12947;SDS011;6539;49.476;8.484;2023-05-23T12:31:16;7.60;;;6.80;;
12947;SDS011;6539;49.476;8.484;2023-05-23T12:33:47;9.17;;;6.13;;
12947;SDS011;6539;49.476;8.484;2023-05-23T12:36:20;6.73;;;6.00;;
12947;SDS011;6539;49.476;8.484;2023-05-23T12:38:51;7.03;;;6.20;;
12947;SDS011;6539;49.476;8.484;2023-05-23T12:41:18;7.17;;;6.50;;
12947;SDS011;6539;49.476;8.484;2023-05-23T12:43:52;9.60;;;7.27;;
12947;SDS011;6539;49.476;8.484;2023-05-23T12:46:25;8.80;;;7.10;;
12947;SDS011;6539;49.476;8.484;2023-05-23T12:48:53;8.43;;;6.93;;
12947;SDS011;6539;49.476;8.484;2023-05-23T12:51:19;7.17;;;6.23;;
12947;SDS011;6539;49.476;8.484;2023-05-23T12:53:45;8.17;;;6.90;;
12947;SDS011;6539;49.476;8.484;2023-05-23T12:56:14;7.07;;;6.47;;
12947;SDS011;6539;49.476;8.484;2023-05-23T12:58:42;7.93;;;7.13;;
12947;SDS011;6539;49.476;8.484;2023-05-23T13:01:13;9.90;;;7.13;;
12947;SDS011;6539;49.476;8.484;2023-05-23T13:03:39;8.80;;;7.40;;
12947;SDS011;6539;49.476;8.484;2023-05-23T13:06:07;8.30;;;7.23;;
12947;SDS011;6539;49.476;8.484;2023-05-23T13:08:33;8.32;;;7.40;;
12947;SDS011;6539;49.476;8.484;2023-05-23T13:11:01;9.40;;;8.37;;
12947;SDS011;6539;49.476;8.484;2023-05-23T13:13:34;9.67;;;8.77;;
12947;SDS011;6539;49.476;8.484;2023-05-23T13:16:06;8.80;;;8.00;;
12947;SDS011;6539;49.476;8.484;2023-05-23T13:18:35;8.50;;;7.63;;
12947;SDS011;6539;49.476;8.484;2023-05-23T13:21:01;9.38;;;7.85;;
12947;SDS011;6539;49.476;8.484;2023-05-23T13:23:29;8.83;;;8.03;;
12947;SDS011;6539;49.476;8.484;2023-05-23T13:25:57;8.10;;;7.27;;
12947;SDS011;6539;49.476;8.484;2023-05-23T13:28:23;9.83;;;8.10;;
12947;SDS011;6539;49.476;8.484;2023-05-23T13:30:49;8.93;;;8.03;;
12947;SDS011;6539;49.476;8.484;2023-05-23T13:33:18;8.93;;;8.03;;
12947;SDS011;6539;49.476;8.484;2023-05-23T13:35:43;10.77;;;8.47;;
12947;SDS011;6539;49.476;8.484;2023-05-23T13:38:18;9.83;;;7.33;;
12947;SDS011;6539;49.476;8.484;2023-05-23T13:40:45;8.70;;;7.83;;
12947;SDS011;6539;49.476;8.484;2023-05-23T13:43:11;8.43;;;7.10;;
12947;SDS011;6539;49.476;8.484;2023-05-23T13:45:39;9.63;;;7.60;;
12947;SDS011;6539;49.476;8.484;2023-05-23T13:48:05;8.60;;;7.80;;
12947;SDS011;6539;49.476;8.484;2023-05-23T13:50:31;8.20;;;7.50;;
12947;SDS011;6539;49.476;8.484;2023-05-23T13:52:56;7.05;;;6.40;;
12947;SDS011;6539;49.476;8.484;2023-05-23T13:55:22;6.47;;;5.87;;
12947;SDS011;6539;49.476;8.484;2023-05-23T13:57:48;6.90;;;5.50;;
12947;SDS011;6539;49.476;8.484;2023-05-23T14:00:13;5.70;;;5.10;;
12947;SDS011;6539;49.476;8.484;2023-05-23T14:02:40;7.30;;;5.70;;
12947;SDS011;6539;49.476;8.484;2023-05-23T14:05:08;6.03;;;5.43;;
12947;SDS011;6539;49.476;8.484;2023-05-23T14:07:35;8.82;;;5.45;;
12947;SDS011;6539;49.476;8.484;2023-05-23T14:10:06;7.55;;;5.10;;
12947;SDS011;6539;49.476;8.484;2023-05-23T14:12:35;5.20;;;4.70;;
12947;SDS011;6539;49.476;8.484;2023-05-23T14:15:03;5.82;;;4.65;;
12947;SDS011;6539;49.476;8.484;2023-05-23T14:17:29;9.27;;;5.13;;
12947;SDS011;6539;49.476;8.484;2023-05-23T14:19:55;7.10;;;4.32;;
12947;SDS011;6539;49.476;8.484;2023-05-23T14:22:21;8.80;;;5.13;;
12947;SDS011;6539;49.476;8.484;2023-05-23T14:24:52;7.77;;;4.50;;
12947;SDS011;6539;49.476;8.484;2023-05-23T14:27:18;4.53;;;4.03;;
12947;SDS011;6539;49.476;8.484;2023-05-23T14:29:46;9.68;;;5.47;;
12947;SDS011;6539;49.476;8.484;2023-05-23T14:32:14;5.47;;;4.88;;
12947;SDS011;6539;49.476;8.484;2023-05-23T14:34:42;7.80;;;5.97;;
12947;SDS011;6539;49.476;8.484;2023-05-23T14:37:07;5.80;;;5.10;;
12947;SDS011;6539;49.476;8.484;2023-05-23T14:39:33;8.67;;;6.27;;
12947;SDS011;6539;49.476;8.484;2023-05-23T14:41:59;7.53;;;6.73;;
12947;SDS011;6539;49.476;8.484;2023-05-23T14:44:26;8.27;;;6.40;;
12947;SDS011;6539;49.476;8.484;2023-05-23T14:46:54;6.53;;;5.93;;
12947;SDS011;6539;49.476;8.484;2023-05-23T14:49:20;8.90;;;5.73;;
12947;SDS011;6539;49.476;8.484;2023-05-23T14:51:48;6.70;;;6.00;;
12947;SDS011;6539;49.476;8.484;2023-05-23T14:54:14;9.87;;;6.43;;
12947;SDS011;6539;49.476;8.484;2023-05-23T14:56:42;8.00;;;7.07;;
12947;SDS011;6539;49.476;8.484;2023-05-23T14:59:08;11.40;;;7.40;;
12947;SDS011;6539;49.476;8.484;2023-05-23T15:01:33;8.43;;;7.23;;
12947;SDS011;6539;49.476;8.484;2023-05-23T15:03:59;9.40;;;7.40;;
12947;SDS011;6539;49.476;8.484;2023-05-23T15:06:25;12.20;;;7.40;;
12947;SDS011;6539;49.476;8.484;2023-05-23T15:08:51;7.90;;;6.97;;
12947;SDS011;6539;49.476;8.484;2023-05-23T15:11:17;10.93;;;6.83;;
12947;SDS011;6539;49.476;8.484;2023-05-23T15:13:43;8.90;;;7.37;;
12947;SDS011;6539;49.476;8.484;2023-05-23T15:16:11;10.87;;;6.77;;
12947;SDS011;6539;49.476;8.484;2023-05-23T15:18:37;9.93;;;7.10;;
12947;SDS011;6539;49.476;8.484;2023-05-23T15:21:04;11.07;;;9.97;;
12947;SDS011;6539;49.476;8.484;2023-05-23T15:23:30;9.23;;;8.03;;
12947;SDS011;6539;49.476;8.484;2023-05-23T15:26:05;8.67;;;6.30;;
12947;SDS011;6539;49.476;8.484;2023-05-23T15:28:33;6.60;;;6.00;;